createdAt,value
2023-02-08T00:01:45.349Z,27.30
2023-02-08T00:04:11.064Z,27.93
2023-02-08T00:06:36.810Z,32.17
2023-02-08T00:09:03.172Z,24.03
2023-02-08T00:11:29.260Z,30.50
2023-02-08T00:13:55.021Z,29.73
2023-02-08T00:16:20.898Z,24.97
2023-02-08T00:18:46.715Z,33.00
2023-02-08T00:21:14.066Z,32.13
2023-02-08T00:23:40.083Z,27.87
2023-02-08T00:26:05.942Z,27.27
2023-02-08T00:28:31.743Z,32.43
2023-02-08T00:30:57.695Z,26.27
2023-02-08T00:33:23.500Z,33.60
2023-02-08T00:35:49.322Z,30.80
2023-02-08T00:38:15.066Z,31.97
2023-02-08T00:40:41.050Z,31.67
2023-02-08T00:43:06.952Z,29.90
2023-02-08T00:45:32.804Z,29.77
2023-02-08T00:47:58.784Z,30.87
2023-02-08T00:50:24.507Z,29.83
2023-02-08T00:52:50.232Z,27.23
2023-02-08T00:55:16.086Z,31.60
2023-02-08T00:57:41.820Z,32.03
2023-02-08T01:00:08.464Z,28.57
2023-02-08T01:02:34.235Z,30.23
2023-02-08T01:04:59.995Z,33.07
2023-02-08T01:07:25.785Z,29.57
2023-02-08T01:09:51.548Z,34.53
2023-02-08T01:12:17.350Z,27.33
2023-02-08T01:14:43.114Z,27.30
2023-02-08T01:17:08.921Z,26.27
2023-02-08T01:19:34.820Z,28.13
2023-02-08T01:22:00.515Z,34.23
2023-02-08T01:24:26.268Z,33.23
2023-02-08T01:26:51.998Z,30.77
2023-02-08T01:29:17.843Z,32.30
2023-02-08T01:31:44.407Z,28.73
2023-02-08T01:34:10.820Z,31.33
2023-02-08T01:36:37.339Z,34.70
2023-02-08T01:39:03.741Z,32.20
2023-02-08T01:41:34.173Z,31.47
2023-02-08T01:46:25.558Z,28.77
2023-02-08T01:48:52.639Z,34.43
2023-02-08T01:51:20.685Z,29.60
2023-02-08T01:53:48.108Z,41.93
2023-02-08T01:56:17.239Z,33.57
2023-02-08T01:58:44.524Z,34.00
2023-02-08T02:01:11.027Z,27.70
2023-02-08T02:03:36.940Z,33.97
2023-02-08T02:06:05.878Z,30.37
2023-02-08T02:08:31.617Z,27.17
2023-02-08T02:10:57.422Z,27.10
2023-02-08T02:13:24.259Z,30.47
2023-02-08T02:15:50.335Z,33.03
2023-02-08T02:18:26.835Z,26.80
2023-02-08T02:20:52.551Z,29.47
2023-02-08T02:23:18.250Z,30.57
2023-02-08T02:26:19.374Z,31.23
2023-02-08T02:28:54.792Z,28.03
2023-02-08T02:31:29.422Z,26.67
2023-02-08T02:33:55.175Z,32.17
2023-02-08T02:36:33.039Z,35.47
2023-02-08T02:39:13.666Z,33.87
2023-02-08T02:42:01.171Z,31.67
2023-02-08T02:44:29.677Z,34.13
2023-02-08T02:47:00.549Z,34.30
2023-02-08T02:49:30.071Z,33.63
2023-02-08T02:51:58.347Z,32.60
2023-02-08T02:54:26.852Z,34.37
2023-02-08T02:56:55.596Z,32.30
2023-02-08T02:59:22.113Z,31.33
2023-02-08T03:01:48.163Z,29.53
2023-02-08T03:04:18.359Z,29.80
2023-02-08T03:06:44.050Z,31.85
2023-02-08T03:09:28.609Z,31.83
2023-02-08T03:12:04.059Z,33.70
2023-02-08T03:14:34.294Z,37.17
2023-02-08T03:17:02.918Z,34.03
2023-02-08T03:19:35.853Z,31.67
2023-02-08T03:22:10.872Z,35.13
2023-02-08T03:24:50.428Z,32.33
2023-02-08T03:27:16.120Z,39.70
2023-02-08T03:30:07.908Z,39.27
2023-02-08T03:32:43.015Z,29.73
2023-02-08T03:35:16.529Z,34.63
2023-02-08T03:37:42.251Z,35.70
2023-02-08T03:40:34.261Z,35.47
2023-02-08T03:43:02.524Z,35.47
2023-02-08T03:45:30.749Z,29.40
2023-02-08T03:47:58.969Z,34.83
2023-02-08T03:50:24.750Z,34.40
2023-02-08T03:52:51.554Z,30.90
2023-02-08T03:55:19.575Z,35.00
2023-02-08T03:57:45.269Z,32.40
2023-02-08T04:00:13.877Z,29.87
2023-02-08T04:02:51.653Z,29.00
2023-02-08T04:05:17.983Z,33.17
2023-02-08T04:07:43.714Z,34.77
2023-02-08T04:10:09.492Z,29.73
2023-02-08T04:12:35.262Z,36.57
2023-02-08T04:15:00.981Z,31.93
2023-02-08T04:17:26.740Z,35.80
2023-02-08T04:19:52.458Z,33.13
2023-02-08T04:22:18.209Z,33.20
2023-02-08T04:24:44.026Z,35.57
2023-02-08T04:27:09.810Z,34.23
2023-02-08T04:29:35.535Z,61.37
2023-02-08T04:32:01.954Z,42.80
2023-02-08T04:34:27.691Z,39.97
2023-02-08T04:36:53.405Z,36.17
2023-02-08T04:39:19.135Z,40.17
2023-02-08T04:41:44.942Z,36.53
2023-02-08T04:44:10.653Z,34.67
2023-02-08T04:46:36.542Z,36.43
2023-02-08T04:49:02.292Z,34.73
2023-02-08T04:51:28.024Z,41.73
2023-02-08T04:53:53.735Z,36.03
2023-02-08T04:56:19.446Z,31.23
2023-02-08T04:58:45.897Z,38.43
2023-02-08T05:01:11.713Z,33.23
2023-02-08T05:03:37.608Z,41.20
2023-02-08T05:06:03.375Z,37.93
2023-02-08T05:08:29.136Z,34.37
2023-02-08T05:10:54.848Z,33.60
2023-02-08T05:13:20.675Z,29.90
2023-02-08T05:15:46.420Z,36.27
2023-02-08T05:18:12.156Z,39.87
2023-02-08T05:20:37.978Z,36.67
2023-02-08T05:23:05.328Z,42.53
2023-02-08T05:25:31.119Z,32.43
2023-02-08T05:27:56.876Z,35.37
2023-02-08T05:30:22.675Z,39.57
2023-02-08T05:32:48.441Z,41.27
2023-02-08T05:35:14.266Z,33.77
2023-02-08T05:37:40.427Z,39.43
2023-02-08T05:40:06.551Z,37.90
2023-02-08T05:42:32.249Z,34.87
2023-02-08T05:44:58.007Z,33.77
2023-02-08T05:47:23.821Z,36.67
2023-02-08T05:49:49.601Z,35.50
2023-02-08T05:52:15.360Z,36.17
2023-02-08T05:54:41.079Z,37.00
2023-02-08T05:57:06.904Z,37.00
2023-02-08T05:59:33.265Z,32.90
2023-02-08T06:01:59.291Z,42.03
2023-02-08T06:04:25.030Z,35.30
2023-02-08T06:06:50.851Z,37.53
2023-02-08T06:09:16.819Z,36.83
2023-02-08T06:11:42.687Z,36.10
2023-02-08T06:14:08.526Z,41.00
2023-02-08T06:16:34.295Z,38.10
2023-02-08T06:19:00.221Z,40.53
2023-02-08T06:21:27.852Z,37.13
2023-02-08T06:23:53.934Z,41.73
2023-02-08T06:26:19.777Z,47.13
2023-02-08T06:28:46.709Z,43.80
2023-02-08T06:31:12.483Z,47.23
2023-02-08T06:33:38.782Z,41.37
2023-02-08T06:36:04.867Z,44.90
2023-02-08T06:38:30.678Z,39.13
2023-02-08T06:40:56.928Z,41.60
2023-02-08T06:43:22.756Z,41.90
2023-02-08T06:45:48.659Z,46.80
2023-02-08T06:48:15.045Z,43.43
2023-02-08T06:50:41.381Z,47.50
2023-02-08T06:53:07.330Z,40.30
2023-02-08T06:55:33.176Z,45.30
2023-02-08T06:57:59.434Z,46.77
2023-02-08T07:00:25.396Z,43.13
2023-02-08T07:02:52.096Z,43.40
2023-02-08T07:05:22.853Z,40.80
2023-02-08T07:07:48.711Z,45.03
2023-02-08T07:10:15.115Z,35.07
2023-02-08T07:12:40.977Z,44.47
2023-02-08T07:15:07.232Z,43.93
2023-02-08T07:17:33.322Z,41.80
2023-02-08T07:19:59.324Z,49.60
2023-02-08T07:22:25.509Z,39.63
2023-02-08T07:24:51.383Z,39.10
2023-02-08T07:27:17.361Z,38.80
2023-02-08T07:29:43.273Z,37.90
2023-02-08T07:32:09.309Z,39.07
2023-02-08T07:34:36.504Z,40.00
2023-02-08T07:37:02.325Z,40.70
2023-02-08T07:39:32.357Z,42.83
2023-02-08T07:41:58.257Z,38.65
2023-02-08T07:44:24.328Z,35.47
2023-02-08T07:46:50.188Z,40.50
2023-02-08T07:49:15.927Z,41.97
2023-02-08T07:51:41.785Z,36.60
2023-02-08T07:54:07.635Z,34.47
2023-02-08T07:56:33.454Z,38.63
2023-02-08T07:58:59.377Z,36.90
2023-02-08T08:01:25.295Z,45.53
2023-02-08T08:03:51.524Z,43.97
2023-02-08T08:06:18.353Z,51.70
2023-02-08T08:08:47.895Z,41.83
2023-02-08T08:11:14.423Z,45.50
2023-02-08T08:13:40.355Z,42.80
2023-02-08T08:16:06.446Z,46.27
2023-02-08T08:18:32.328Z,43.73
2023-02-08T08:20:58.073Z,56.73
2023-02-08T08:23:23.970Z,44.43
2023-02-08T08:25:49.917Z,43.53
2023-02-08T08:28:15.824Z,53.37
2023-02-08T08:30:43.046Z,40.83
2023-02-08T08:33:09.125Z,42.33
2023-02-08T08:35:38.008Z,40.07
2023-02-08T08:38:03.830Z,41.13
2023-02-08T08:40:29.679Z,39.37
2023-02-08T08:42:56.413Z,46.87
2023-02-08T08:45:22.506Z,43.70
2023-02-08T08:47:48.289Z,37.27
2023-02-08T08:50:14.225Z,40.13
2023-02-08T08:52:40.361Z,40.50
2023-02-08T08:55:06.778Z,40.30
2023-02-08T08:57:32.583Z,42.93
2023-02-08T08:59:58.697Z,38.90
2023-02-08T09:02:24.486Z,43.13
2023-02-08T09:04:59.348Z,35.70
2023-02-08T09:07:25.197Z,39.43
2023-02-08T09:09:50.950Z,40.70
2023-02-08T09:12:16.858Z,41.47
2023-02-08T09:14:44.256Z,43.77
2023-02-08T09:17:10.872Z,39.87
2023-02-08T09:19:36.714Z,43.03
2023-02-08T09:22:02.576Z,44.63
2023-02-08T09:24:28.294Z,41.43
2023-02-08T09:26:54.285Z,41.53
2023-02-08T09:29:20.248Z,40.20
2023-02-08T09:31:46.232Z,41.37
2023-02-08T09:34:12.112Z,43.50
2023-02-08T09:36:39.088Z,45.13
2023-02-08T09:39:07.329Z,44.87
2023-02-08T09:41:51.925Z,47.57
2023-02-08T09:44:44.456Z,45.13
2023-02-08T09:47:28.758Z,46.07
2023-02-08T09:50:04.148Z,43.53
2023-02-08T09:52:38.783Z,43.70
2023-02-08T09:55:18.037Z,45.40
2023-02-08T09:57:44.596Z,43.27
2023-02-08T10:00:15.655Z,41.50
2023-02-08T10:02:43.162Z,42.50
2023-02-08T10:05:14.152Z,39.97
2023-02-08T10:07:40.675Z,42.93
2023-02-08T10:10:36.027Z,46.20
2023-02-08T10:13:18.731Z,38.87
2023-02-08T10:15:50.026Z,46.83
2023-02-08T10:18:38.462Z,43.87
2023-02-08T10:21:15.680Z,41.03
2023-02-08T10:23:56.719Z,42.70
2023-02-08T10:26:22.675Z,42.83
2023-02-08T10:29:03.879Z,45.03
2023-02-08T10:31:39.714Z,44.23
2023-02-08T10:34:24.725Z,40.87
2023-02-08T10:36:50.921Z,40.53
2023-02-08T10:39:18.277Z,40.73
2023-02-08T10:41:45.523Z,42.03
2023-02-08T10:44:20.113Z,43.40
2023-02-08T10:47:01.402Z,45.93
2023-02-08T10:49:40.124Z,48.67
2023-02-08T10:52:06.142Z,38.03
2023-02-08T10:54:34.711Z,42.93
2023-02-08T10:57:04.983Z,43.20
2023-02-08T10:59:46.033Z,40.72
2023-02-08T11:02:21.080Z,42.17
2023-02-08T11:04:59.837Z,44.27
2023-02-08T11:07:25.578Z,43.50
2023-02-08T11:09:51.433Z,41.93
2023-02-08T11:12:21.083Z,43.07
2023-02-08T11:14:57.010Z,45.57
2023-02-08T11:17:33.433Z,41.77
2023-02-08T11:19:59.534Z,40.60
2023-02-08T11:22:26.874Z,45.13
2023-02-08T11:24:56.263Z,43.80
2023-02-08T11:27:28.200Z,48.37
2023-02-08T11:30:12.429Z,45.10
2023-02-08T11:32:38.746Z,44.13
2023-02-08T11:35:23.895Z,47.97
2023-02-08T11:37:55.122Z,46.63
2023-02-08T11:40:22.914Z,46.40
2023-02-08T11:42:49.022Z,52.13
2023-02-08T11:45:19.603Z,53.83
2023-02-08T11:50:21.004Z,46.77
2023-02-08T11:52:50.938Z,45.43
2023-02-08T11:55:16.921Z,46.35
2023-02-08T11:58:00.225Z,46.27
2023-02-08T12:00:27.723Z,50.70
2023-02-08T12:02:58.263Z,46.67
2023-02-08T12:05:27.684Z,49.15
2023-02-08T12:08:06.274Z,44.00
2023-02-08T12:10:42.980Z,48.80
2023-02-08T12:13:23.507Z,45.20
2023-02-08T12:16:08.974Z,46.38
2023-02-08T12:18:34.786Z,42.53
2023-02-08T12:21:05.100Z,44.20
2023-02-08T12:23:43.156Z,44.20
2023-02-08T12:26:08.922Z,45.20
2023-02-08T12:28:53.266Z,40.53
2023-02-08T12:31:31.348Z,39.87
2023-02-08T12:34:09.429Z,45.23
2023-02-08T12:36:37.978Z,50.33
2023-02-08T12:39:41.371Z,47.47
2023-02-08T12:42:09.988Z,46.17
2023-02-08T12:44:54.919Z,45.40
2023-02-08T12:47:39.309Z,39.43
2023-02-08T12:50:16.438Z,45.37
2023-02-08T12:52:52.592Z,42.40
2023-02-08T12:55:22.997Z,42.40
2023-02-08T12:58:15.344Z,44.00
2023-02-08T13:00:42.354Z,43.83
2023-02-08T13:03:14.361Z,51.33
2023-02-08T13:06:03.203Z,40.43
2023-02-08T13:08:36.885Z,48.83
2023-02-08T13:11:26.430Z,42.90
2023-02-08T13:13:56.195Z,44.83
2023-02-08T13:16:24.264Z,40.72
2023-02-08T13:18:53.994Z,44.03
2023-02-08T13:21:22.272Z,40.63
2023-02-08T13:23:52.903Z,41.10
2023-02-08T13:26:26.248Z,40.90
2023-02-08T13:28:53.171Z,41.53
2023-02-08T13:31:24.447Z,43.70
2023-02-08T13:34:01.378Z,37.90
2023-02-08T13:36:41.760Z,36.60
2023-02-08T13:39:22.238Z,34.80
2023-02-08T13:41:51.352Z,37.47
2023-02-08T13:44:19.546Z,42.93
2023-02-08T13:46:47.323Z,39.50
2023-02-08T13:49:32.105Z,34.10
2023-02-08T13:51:58.189Z,34.43
2023-02-08T13:54:24.083Z,27.70
2023-02-08T13:56:51.552Z,36.00
2023-02-08T13:59:34.696Z,43.90
2023-02-08T14:02:13.165Z,34.80
2023-02-08T14:04:39.820Z,32.90
2023-02-08T14:07:15.631Z,29.67
2023-02-08T14:09:53.110Z,34.03
2023-02-08T14:12:33.727Z,37.33
2023-02-08T14:15:15.920Z,33.27
2023-02-08T14:17:44.287Z,34.17
2023-02-08T14:20:17.264Z,38.20
2023-02-08T14:22:48.830Z,36.43
2023-02-08T14:25:19.110Z,40.10
2023-02-08T14:27:58.081Z,34.38
2023-02-08T14:30:29.552Z,33.73
2023-02-08T14:33:05.837Z,34.17
2023-02-08T14:35:33.559Z,36.03
2023-02-08T14:38:18.087Z,36.70
2023-02-08T14:40:49.265Z,37.93
2023-02-08T14:43:18.167Z,36.50
2023-02-08T14:45:45.983Z,41.33
2023-02-08T14:48:27.192Z,35.83
2023-02-08T14:50:59.592Z,33.60
2023-02-08T14:53:32.577Z,40.00
2023-02-08T14:56:17.134Z,36.20
2023-02-08T14:58:45.247Z,34.57
2023-02-08T15:01:34.278Z,37.20
2023-02-08T15:04:02.411Z,40.77
2023-02-08T15:06:49.902Z,40.63
2023-02-08T15:09:21.318Z,38.30
2023-02-08T15:12:08.962Z,34.87
2023-02-08T15:14:36.005Z,39.93
2023-02-08T15:17:02.434Z,37.13
2023-02-08T15:19:30.927Z,40.07
2023-02-08T15:22:16.031Z,39.00
2023-02-08T15:24:49.053Z,37.63
2023-02-08T15:27:24.842Z,40.83
2023-02-08T15:29:51.678Z,40.70
2023-02-08T15:32:20.302Z,50.70
2023-02-08T15:34:49.856Z,36.03
2023-02-08T15:37:16.739Z,39.53
2023-02-08T15:39:43.118Z,37.90
2023-02-08T15:42:20.105Z,34.50
2023-02-08T15:44:46.704Z,39.10
2023-02-08T15:47:17.572Z,44.83
2023-02-08T15:49:45.906Z,38.67
2023-02-08T15:52:16.555Z,36.07
2023-02-08T15:57:16.415Z,40.37
2023-02-08T15:59:45.148Z,35.53
2023-02-08T16:02:27.924Z,37.13
2023-02-08T16:05:18.905Z,38.20
2023-02-08T16:07:45.257Z,37.40
2023-02-08T16:10:24.202Z,36.60
2023-02-08T16:12:55.518Z,35.83
2023-02-08T16:15:33.538Z,37.10
2023-02-08T16:17:59.334Z,34.23
2023-02-08T16:20:33.680Z,38.27
2023-02-08T16:23:18.586Z,42.33
2023-02-08T16:25:45.143Z,36.03
2023-02-08T16:28:31.616Z,43.83
2023-02-08T16:30:58.971Z,42.57
2023-02-08T16:33:25.356Z,38.60
2023-02-08T16:35:51.546Z,41.37
2023-02-08T16:38:21.408Z,39.57
2023-02-08T16:40:49.574Z,37.53
2023-02-08T16:43:17.001Z,41.33
2023-02-08T16:45:43.304Z,38.73
2023-02-08T16:48:34.408Z,37.73
2023-02-08T16:51:00.957Z,47.53
2023-02-08T16:53:41.374Z,39.40
2023-02-08T16:56:08.514Z,37.37
2023-02-08T16:58:34.596Z,35.97
2023-02-08T17:01:00.647Z,38.30
2023-02-08T17:03:27.036Z,40.03
2023-02-08T17:05:53.034Z,38.07
2023-02-08T17:08:20.549Z,42.90
2023-02-08T17:10:47.978Z,48.87
2023-02-08T17:13:20.409Z,44.13
2023-02-08T17:15:48.311Z,39.77
2023-02-08T17:18:14.440Z,42.63
2023-02-08T17:20:40.390Z,44.13
2023-02-08T17:23:06.304Z,39.47
2023-02-08T17:25:32.741Z,38.60
2023-02-08T17:28:03.744Z,41.50
2023-02-08T17:30:34.166Z,48.77
2023-02-08T17:33:00.303Z,47.58
2023-02-08T17:35:27.714Z,40.20
2023-02-08T17:37:54.289Z,46.50
2023-02-08T17:40:26.513Z,44.87
2023-02-08T17:42:53.370Z,42.73
2023-02-08T17:45:19.651Z,42.50
2023-02-08T17:47:45.948Z,40.63
2023-02-08T17:50:12.770Z,46.03
2023-02-08T17:52:39.162Z,36.73
2023-02-08T17:55:05.732Z,41.37
2023-02-08T17:57:32.381Z,33.37
2023-02-08T17:59:58.357Z,35.90
2023-02-08T18:02:24.554Z,36.23
2023-02-08T18:04:50.491Z,44.77
2023-02-08T18:07:16.476Z,37.83
2023-02-08T18:09:42.644Z,39.20
2023-02-08T18:12:08.526Z,41.30
2023-02-08T18:14:36.914Z,36.83
2023-02-08T18:17:02.885Z,41.83
2023-02-08T18:19:28.677Z,35.97
2023-02-08T18:21:54.509Z,38.47
2023-02-08T18:24:20.320Z,42.07
2023-02-08T18:26:46.221Z,39.07
2023-02-08T18:29:12.020Z,38.57
2023-02-08T18:31:38.450Z,41.50
2023-02-08T18:34:04.265Z,41.97
2023-02-08T18:36:30.417Z,39.17
2023-02-08T18:38:56.660Z,40.83
2023-02-08T18:41:24.528Z,46.17
2023-02-08T18:43:50.564Z,40.70
2023-02-08T18:46:18.603Z,40.10
2023-02-08T18:48:45.224Z,39.03
2023-02-08T18:51:11.730Z,40.77
2023-02-08T18:53:39.009Z,38.40
2023-02-08T18:56:05.786Z,39.27
2023-02-08T18:58:31.730Z,39.63
2023-02-08T19:01:08.294Z,40.53
2023-02-08T19:03:35.188Z,41.90
2023-02-08T19:06:09.601Z,40.17
2023-02-08T19:08:37.035Z,43.57
2023-02-08T19:11:04.234Z,39.27
2023-02-08T19:13:30.279Z,38.73
2023-02-08T19:15:56.148Z,39.10
2023-02-08T19:18:22.171Z,44.90
2023-02-08T19:20:48.063Z,42.87
2023-02-08T19:23:13.876Z,39.47
2023-02-08T19:25:39.664Z,39.50
2023-02-08T19:28:06.157Z,42.03
2023-02-08T19:30:32.242Z,41.33
2023-02-08T19:32:58.309Z,37.80
2023-02-08T19:35:30.285Z,46.33
2023-02-08T19:37:56.135Z,39.33
2023-02-08T19:40:23.596Z,40.30
2023-02-08T19:42:49.437Z,45.03
2023-02-08T19:45:15.286Z,36.50
2023-02-08T19:47:51.137Z,40.07
2023-02-08T19:50:17.637Z,36.40
2023-02-08T19:52:43.382Z,38.53
2023-02-08T19:55:09.413Z,36.03
2023-02-08T19:57:39.450Z,40.73
2023-02-08T20:00:11.317Z,40.83
2023-02-08T20:02:43.613Z,34.60
2023-02-08T20:05:09.347Z,32.30
2023-02-08T20:07:35.868Z,31.00
2023-02-08T20:10:01.939Z,29.80
2023-02-08T20:12:27.749Z,33.80
2023-02-08T20:14:53.700Z,33.37
2023-02-08T20:17:19.415Z,33.43
2023-02-08T20:19:45.140Z,29.30
2023-02-08T20:22:10.907Z,36.33
2023-02-08T20:24:36.633Z,30.83
2023-02-08T20:27:02.443Z,31.03
2023-02-08T20:29:28.925Z,29.37
2023-02-08T20:31:58.897Z,30.77
2023-02-08T20:34:24.692Z,31.80
2023-02-08T20:37:05.646Z,26.00
2023-02-08T20:39:32.839Z,31.37
2023-02-08T20:41:58.626Z,25.03
2023-02-08T20:44:24.426Z,30.43
2023-02-08T20:46:50.376Z,34.07
2023-02-08T20:49:21.482Z,26.77
2023-02-08T20:51:49.537Z,31.83
2023-02-08T20:54:17.440Z,22.33
2023-02-08T20:56:43.261Z,34.67
2023-02-08T20:59:13.072Z,25.37
2023-02-08T21:01:38.865Z,24.88
2023-02-08T21:04:05.311Z,31.93
2023-02-08T21:06:35.650Z,26.83
2023-02-08T21:09:03.684Z,24.27
2023-02-08T21:11:30.320Z,27.53
2023-02-08T21:13:56.766Z,26.47
2023-02-08T21:16:23.300Z,26.43
2023-02-08T21:18:49.175Z,24.23
2023-02-08T21:21:15.402Z,29.97
2023-02-08T21:23:41.915Z,31.33
2023-02-08T21:26:08.298Z,25.47
2023-02-08T21:28:34.588Z,27.67
2023-02-08T21:31:02.545Z,28.00
2023-02-08T21:33:28.876Z,31.87
2023-02-08T21:35:54.800Z,26.90
2023-02-08T21:38:20.847Z,30.70
2023-02-08T21:40:46.954Z,23.17
2023-02-08T21:43:13.195Z,24.03
2023-02-08T21:45:39.420Z,23.27
2023-02-08T21:48:05.379Z,24.90
2023-02-08T21:50:49.845Z,26.43
2023-02-08T21:53:34.627Z,21.53
2023-02-08T21:56:00.349Z,25.17
2023-02-08T21:58:26.228Z,27.37
2023-02-08T22:00:52.011Z,25.57
2023-02-08T22:03:17.869Z,25.17
2023-02-08T22:06:04.507Z,23.77
2023-02-08T22:08:30.381Z,27.57
2023-02-08T22:11:03.918Z,23.60
2023-02-08T22:13:31.098Z,22.10
2023-02-08T22:15:58.087Z,27.27
2023-02-08T22:18:24.011Z,23.37
2023-02-08T22:20:52.423Z,25.30
2023-02-08T22:23:18.149Z,29.17
2023-02-08T22:25:43.983Z,28.07
2023-02-08T22:28:09.984Z,25.53
2023-02-08T22:30:36.296Z,27.23
2023-02-08T22:33:02.203Z,24.03
2023-02-08T22:35:27.991Z,20.67
2023-02-08T22:37:53.712Z,21.77
2023-02-08T22:40:19.483Z,23.27
2023-02-08T22:42:45.262Z,25.40
2023-02-08T22:45:11.051Z,27.57
2023-02-08T22:47:36.859Z,21.83
2023-02-08T22:50:03.598Z,23.57
2023-02-08T22:52:29.801Z,24.93
2023-02-08T22:54:55.747Z,25.07
2023-02-08T22:57:21.496Z,23.70
2023-02-08T22:59:47.238Z,23.80
2023-02-08T23:02:16.419Z,24.27
2023-02-08T23:04:42.148Z,26.90
2023-02-08T23:07:07.942Z,23.67
2023-02-08T23:09:33.665Z,25.97
2023-02-08T23:11:59.458Z,24.47
2023-02-08T23:14:25.433Z,24.63
2023-02-08T23:16:51.163Z,25.73
2023-02-08T23:19:17.207Z,23.93
2023-02-08T23:21:43.247Z,25.37
2023-02-08T23:24:09.457Z,24.43
2023-02-08T23:26:35.472Z,21.63
2023-02-08T23:29:01.470Z,25.40
2023-02-08T23:31:27.592Z,28.20
2023-02-08T23:33:53.710Z,27.33
2023-02-08T23:36:20.650Z,25.20
2023-02-08T23:38:46.406Z,24.50
2023-02-08T23:41:16.752Z,24.57
2023-02-08T23:43:42.970Z,28.33
2023-02-08T23:46:10.671Z,26.70
2023-02-08T23:48:39.022Z,24.83
2023-02-08T23:51:05.427Z,25.70
2023-02-08T23:53:31.616Z,30.23
2023-02-08T23:56:10.880Z,29.40
2023-02-08T23:58:36.744Z,22.93
